Time;durP1;ratioP1;P1;durP2;ratioP2;P2;SDS_P1;SDS_P2;PMS_P1;PMS_P2;Temp;Humidity;BMP_temperature;BMP_pressure;BME280_temperature;BME280_humidity;BME280_pressure;Samples;Min_cycle;Max_cycle;Signal;HPM_P1;HPM_P2
2023/07/27 00:00:05;;;;;;;3.97;2.50;;;18.00;99.90;;;;;;5074965;28;20020;-77
2023/07/27 00:02:31;;;;;;;5.53;2.35;;;18.00;99.90;;;;;;5074785;28;20032;-77
2023/07/27 00:04:57;;;;;;;3.75;2.00;;;17.90;99.90;;;;;;5074294;28;20591;-76
2023/07/27 00:07:23;;;;;;;2.55;2.00;;;17.90;99.90;;;;;;5073413;28;20025;-77
2023/07/27 00:09:49;;;;;;;2.95;2.10;;;17.90;99.90;;;;;;5074853;28;20021;-77
2023/07/27 00:12:15;;;;;;;4.55;2.88;;;17.90;99.90;;;;;;5074459;28;20032;-76
2023/07/27 00:14:40;;;;;;;3.42;2.20;;;17.80;99.90;;;;;;5073456;28;20080;-77
2023/07/27 00:17:06;;;;;;;3.90;2.20;;;17.80;99.90;;;;;;5073377;28;20036;-77
2023/07/27 00:19:32;;;;;;;2.63;2.20;;;17.80;99.90;;;;;;5074494;28;20526;-77
2023/07/27 00:21:57;;;;;;;5.78;2.67;;;17.80;99.90;;;;;;5068089;28;20032;-77
2023/07/27 00:24:23;;;;;;;3.90;2.72;;;17.70;99.90;;;;;;5074404;28;20052;-77
2023/07/27 00:26:49;;;;;;;3.78;2.70;;;17.60;99.90;;;;;;5073157;28;20040;-77
2023/07/27 00:29:14;;;;;;;4.68;2.90;;;17.60;99.90;;;;;;5074177;28;20024;-76
2023/07/27 00:31:40;;;;;;;5.93;2.58;;;17.50;99.90;;;;;;5071794;28;20073;-76
2023/07/27 00:34:06;;;;;;;9.32;2.67;;;17.50;99.90;;;;;;5074123;28;20012;-76
2023/07/27 00:36:31;;;;;;;3.47;2.55;;;17.50;99.90;;;;;;5072818;28;20065;-76
2023/07/27 00:38:57;;;;;;;3.63;2.30;;;17.50;99.90;;;;;;5073654;28;20095;-76
2023/07/27 00:41:23;;;;;;;4.72;3.08;;;17.50;99.90;;;;;;5073261;28;20024;-76
2023/07/27 00:43:48;;;;;;;3.97;2.65;;;17.50;99.90;;;;;;5072963;28;20024;-76
2023/07/27 00:46:15;;;;;;;4.18;2.47;;;17.50;99.90;;;;;;5071497;28;20447;-76
2023/07/27 00:48:41;;;;;;;4.03;2.65;;;17.50;99.90;;;;;;5072898;28;20108;-76
2023/07/27 00:51:10;;;;;;;4.22;2.58;;;17.40;99.90;;;;;;5071268;28;20048;-76
2023/07/27 00:53:36;;;;;;;3.30;2.70;;;17.40;99.90;;;;;;5073614;28;20052;-76
2023/07/27 00:56:03;;;;;;;6.75;2.63;;;17.40;99.90;;;;;;5070632;28;20123;-76
2023/07/27 00:58:29;;;;;;;4.47;2.50;;;17.30;99.90;;;;;;5073605;28;20109;-76
2023/07/27 01:00:55;;;;;;;3.55;2.35;;;17.30;99.90;;;;;;5070833;28;20036;-76
2023/07/27 01:03:20;;;;;;;2.90;2.60;;;17.30;99.90;;;;;;5073338;28;20555;-76
2023/07/27 01:05:46;;;;;;;3.35;2.40;;;17.30;99.90;;;;;;5070470;28;20029;-76
2023/07/27 01:08:12;;;;;;;4.05;2.50;;;17.30;99.90;;;;;;5072856;28;20021;-76
2023/07/27 01:11:00;;;;;;;4.28;2.60;;;17.20;99.90;;;;;;5072087;28;20035;-76
2023/07/27 01:13:50;;;;;;;2.85;2.20;;;17.20;99.90;;;;;;5060098;28;20017;-76
2023/07/27 01:16:23;;;;;;;2.40;1.95;;;17.20;99.90;;;;;;5075082;28;20392;-76
2023/07/27 01:19:29;;;;;;;4.22;2.35;;;17.10;99.90;;;;;;5067630;28;20492;-76
2023/07/27 01:22:27;;;;;;;2.83;2.10;;;17.10;99.90;;;;;;5054082;28;20033;-76
2023/07/27 01:24:53;;;;;;;3.63;2.20;;;17.00;99.90;;;;;;5056256;28;20122;-76
2023/07/27 01:27:46;;;;;;;3.55;2.08;;;17.00;99.90;;;;;;5056622;28;20024;-76
2023/07/27 01:30:27;;;;;;;3.63;1.70;;;17.00;99.90;;;;;;5066921;28;20040;-76
2023/07/27 01:33:08;;;;;;;;;;;17.00;99.90;;;;;;5052561;28;20016;-75
2023/07/27 01:35:46;;;;;;;2.42;2.00;;;17.00;99.90;;;;;;5070259;28;20426;-76
2023/07/27 01:38:12;;;;;;;4.47;2.50;;;17.00;99.90;;;;;;5071431;28;20025;-76
2023/07/27 01:40:39;;;;;;;4.38;2.30;;;16.90;99.90;;;;;;5067262;28;20013;-76
2023/07/27 01:43:06;;;;;;;2.63;2.28;;;16.90;99.90;;;;;;5071414;28;20781;-76
2023/07/27 01:45:31;;;;;;;2.70;2.25;;;16.90;99.90;;;;;;5070117;28;20024;-76
2023/07/27 01:47:57;;;;;;;2.92;2.10;;;16.80;99.90;;;;;;5064060;28;20055;-76
2023/07/27 01:50:23;;;;;;;5.38;2.17;;;16.80;99.90;;;;;;5059347;28;20018;-76
2023/07/27 01:52:52;;;;;;;2.38;1.98;;;16.80;99.90;;;;;;5064705;28;20066;-77
2023/07/27 01:55:19;;;;;;;2.60;1.95;;;16.80;99.90;;;;;;5061291;28;20024;-76
2023/07/27 01:57:46;;;;;;;1.83;1.70;;;16.80;99.90;;;;;;5061076;28;20020;-76
2023/07/27 02:00:12;;;;;;;2.17;1.98;;;16.80;99.90;;;;;;5058844;28;20028;-76
2023/07/27 02:02:38;;;;;;;4.22;2.17;;;16.80;99.90;;;;;;5062034;28;20031;-77
2023/07/27 02:05:04;;;;;;;2.72;2.00;;;16.80;99.90;;;;;;5058302;28;20092;-77
2023/07/27 02:07:35;;;;;;;2.22;1.73;;;16.80;99.90;;;;;;5066399;28;20417;-77
2023/07/27 02:10:00;;;;;;;2.95;2.00;;;16.80;99.90;;;;;;5063064;28;20132;-76
2023/07/27 02:12:32;;;;;;;2.20;2.00;;;16.80;99.90;;;;;;5060037;28;20064;-76
2023/07/27 02:15:05;;;;;;;5.03;2.15;;;16.80;99.90;;;;;;5056070;28;20016;-76
2023/07/27 02:17:52;;;;;;;5.50;1.98;;;16.70;99.90;;;;;;5064106;28;20039;-76
2023/07/27 02:20:19;;;;;;;2.58;1.98;;;16.70;99.90;;;;;;5063294;28;20025;-76
2023/07/27 02:22:47;;;;;;;3.05;2.20;;;16.70;99.90;;;;;;5059932;28;20076;-76
2023/07/27 02:25:13;;;;;;;4.07;2.40;;;16.70;99.90;;;;;;5064141;28;20029;-76
2023/07/27 02:27:39;;;;;;;6.38;2.00;;;16.70;99.90;;;;;;5061588;28;20029;-76
2023/07/27 02:30:05;;;;;;;2.42;2.00;;;16.70;99.90;;;;;;5063779;28;20013;-76
2023/07/27 02:32:32;;;;;;;2.85;1.95;;;16.60;99.90;;;;;;5061610;28;20033;-76
2023/07/27 02:34:58;;;;;;;2.13;1.80;;;16.60;99.90;;;;;;5063851;28;20365;-77
2023/07/27 02:37:23;;;;;;;2.92;1.95;;;16.60;99.90;;;;;;5061379;28;20108;-77
2023/07/27 02:39:49;;;;;;;3.05;2.20;;;16.60;99.90;;;;;;5064416;28;20027;-77
2023/07/27 02:42:15;;;;;;;3.85;2.20;;;16.60;99.90;;;;;;5060306;28;20025;-77
2023/07/27 02:44:40;;;;;;;3.13;2.17;;;16.50;99.90;;;;;;5063585;28;20073;-77
2023/07/27 02:47:06;;;;;;;2.88;1.92;;;16.50;99.90;;;;;;5061797;28;20083;-77
2023/07/27 02:49:32;;;;;;;2.92;1.95;;;16.40;99.90;;;;;;5063453;28;20442;-77
2023/07/27 02:51:58;;;;;;;4.40;2.00;;;16.50;99.90;;;;;;5062149;28;20064;-77
2023/07/27 02:54:24;;;;;;;3.65;2.47;;;16.50;99.90;;;;;;5065374;28;20625;-77
2023/07/27 02:56:50;;;;;;;2.90;2.15;;;16.40;99.90;;;;;;5062250;28;20025;-77
2023/07/27 02:59:15;;;;;;;2.30;1.95;;;16.40;99.90;;;;;;5065657;28;20491;-77
2023/07/27 03:01:41;;;;;;;2.83;2.55;;;16.40;99.90;;;;;;5060784;28;20094;-77
2023/07/27 03:04:06;;;;;;;3.83;2.20;;;16.30;99.90;;;;;;5065846;28;20025;-77
2023/07/27 03:06:32;;;;;;;2.28;2.00;;;16.30;99.90;;;;;;5059997;28;20037;-77
2023/07/27 03:08:58;;;;;;;3.47;2.10;;;16.30;99.90;;;;;;5064777;28;20021;-77
2023/07/27 03:11:23;;;;;;;3.58;2.17;;;16.20;99.90;;;;;;5061647;28;20028;-76
2023/07/27 03:13:50;;;;;;;4.28;2.28;;;16.20;99.90;;;;;;5064772;28;20044;-76
2023/07/27 03:16:15;;;;;;;4.32;2.63;;;16.20;99.90;;;;;;5061450;28;20033;-77
2023/07/27 03:18:41;;;;;;;2.80;2.20;;;16.10;99.90;;;;;;5058860;28;20444;-76
2023/07/27 03:21:06;;;;;;;5.00;2.63;;;16.00;99.90;;;;;;5051568;28;20500;-76
2023/07/27 03:23:33;;;;;;;3.95;2.13;;;15.90;99.90;;;;;;5062041;28;20045;-76
2023/07/27 03:25:59;;;;;;;5.10;4.15;;;15.80;99.90;;;;;;5060186;28;20033;-77
2023/07/27 03:28:24;;;;;;;3.20;2.65;;;15.80;99.90;;;;;;5062830;28;20016;-77
2023/07/27 03:30:50;;;;;;;3.53;2.40;;;15.80;99.90;;;;;;5060709;28;20025;-76
2023/07/27 03:33:16;;;;;;;2.47;2.28;;;15.80;99.90;;;;;;5063088;28;20546;-76
2023/07/27 03:35:41;;;;;;;3.97;2.50;;;15.70;99.90;;;;;;5060042;28;20029;-77
2023/07/27 03:38:07;;;;;;;3.28;2.90;;;15.70;99.90;;;;;;5062458;28;20551;-76
2023/07/27 03:40:33;;;;;;;3.83;2.53;;;15.70;99.90;;;;;;5059806;28;20857;-77
2023/07/27 03:42:58;;;;;;;4.75;2.63;;;15.70;99.90;;;;;;5061774;28;20035;-77
2023/07/27 03:45:24;;;;;;;3.38;2.42;;;15.70;99.90;;;;;;5049981;28;20033;-77
2023/07/27 03:47:50;;;;;;;4.15;2.45;;;15.70;99.90;;;;;;5057292;28;20484;-76
2023/07/27 03:50:15;;;;;;;3.25;2.58;;;15.60;99.90;;;;;;5059924;28;20022;-76
2023/07/27 03:52:41;;;;;;;2.67;2.45;;;15.60;99.90;;;;;;5062575;28;20020;-77
2023/07/27 03:55:07;;;;;;;5.00;2.70;;;15.60;99.90;;;;;;5060148;28;20025;-76
2023/07/27 03:57:33;;;;;;;2.55;2.10;;;15.60;99.90;;;;;;5062544;28;20503;-77
2023/07/27 03:59:59;;;;;;;2.47;2.00;;;15.60;99.90;;;;;;5060024;28;20033;-77
2023/07/27 04:02:26;;;;;;;3.25;2.45;;;15.60;99.90;;;;;;5062281;28;20392;-77
2023/07/27 04:04:52;;;;;;;3.05;2.38;;;15.60;99.90;;;;;;5060155;28;20017;-77
2023/07/27 04:07:18;;;;;;;4.32;2.17;;;15.60;99.90;;;;;;5050678;28;20085;-77
2023/07/27 04:09:44;;;;;;;3.38;2.22;;;15.60;99.90;;;;;;5058721;28;20528;-77
2023/07/27 04:12:10;;;;;;;3.28;2.40;;;15.50;99.90;;;;;;5062845;28;20055;-77
2023/07/27 04:14:37;;;;;;;3.42;2.85;;;15.50;99.90;;;;;;5060116;28;20024;-77
2023/07/27 04:17:02;;;;;;;3.78;2.53;;;15.50;99.90;;;;;;5064287;28;20025;-77
2023/07/27 04:19:28;;;;;;;5.63;2.33;;;15.50;99.90;;;;;;5060181;28;20032;-78
2023/07/27 04:21:54;;;;;;;2.97;2.40;;;15.50;99.90;;;;;;5061411;28;20629;-77
2023/07/27 04:24:20;;;;;;;4.00;2.47;;;15.50;99.90;;;;;;5059426;28;20053;-77
2023/07/27 04:26:45;;;;;;;3.78;2.63;;;15.40;99.90;;;;;;5061619;28;20024;-77
2023/07/27 04:29:11;;;;;;;4.53;2.40;;;15.40;99.90;;;;;;5059249;28;20025;-77
2023/07/27 04:31:36;;;;;;;4.20;2.53;;;15.40;99.90;;;;;;5062738;28;20020;-77
2023/07/27 04:34:02;;;;;;;3.42;2.72;;;15.30;99.90;;;;;;5060311;28;20021;-77
2023/07/27 04:36:28;;;;;;;6.10;2.63;;;15.40;99.90;;;;;;5063317;28;20047;-77
2023/07/27 04:38:53;;;;;;;2.97;2.55;;;15.30;99.90;;;;;;5058955;28;20029;-77
2023/07/27 04:41:19;;;;;;;4.68;2.70;;;15.30;99.90;;;;;;5063493;28;20454;-77
2023/07/27 04:43:45;;;;;;;3.92;2.78;;;15.30;99.90;;;;;;5059878;28;20685;-77
2023/07/27 04:46:10;;;;;;;3.42;2.58;;;15.30;99.90;;;;;;5063220;28;20515;-77
2023/07/27 04:48:36;;;;;;;3.05;2.55;;;15.30;99.90;;;;;;5059741;28;20493;-77
2023/07/27 04:51:02;;;;;;;3.35;2.60;;;15.30;99.90;;;;;;5062794;28;20534;-77
2023/07/27 04:53:28;;;;;;;3.55;2.40;;;15.40;99.90;;;;;;5060416;28;20021;-77
2023/07/27 04:55:53;;;;;;;2.40;2.08;;;15.40;99.90;;;;;;5062799;28;20024;-77
2023/07/27 04:58:19;;;;;;;3.72;2.33;;;15.40;99.90;;;;;;5058451;28;20029;-78
2023/07/27 05:00:50;;;;;;;5.50;2.70;;;15.40;99.90;;;;;;5061340;28;20086;-78
2023/07/27 05:03:16;;;;;;;4.80;2.55;;;15.50;99.90;;;;;;5059414;28;20029;-78
2023/07/27 05:05:43;;;;;;;3.05;2.55;;;15.50;99.90;;;;;;5063548;28;20062;-79
2023/07/27 05:08:08;;;;;;;2.60;2.40;;;15.60;99.90;;;;;;5060008;28;20021;-78
2023/07/27 05:10:34;;;;;;;2.63;2.42;;;15.70;99.90;;;;;;5064144;28;20016;-79
2023/07/27 05:13:00;;;;;;;3.08;2.72;;;15.70;99.90;;;;;;5059722;28;20024;-78
2023/07/27 05:15:25;;;;;;;6.57;2.20;;;15.80;99.90;;;;;;5062299;28;20503;-78
2023/07/27 05:17:51;;;;;;;3.00;2.35;;;15.90;99.90;;;;;;5059212;28;20025;-79
2023/07/27 05:20:17;;;;;;;3.67;2.75;;;15.90;99.90;;;;;;5049412;28;20033;-79
2023/07/27 05:22:42;;;;;;;4.20;2.88;;;16.00;99.90;;;;;;5058594;28;20037;-79
2023/07/27 05:25:10;;;;;;;3.38;2.78;;;16.00;99.90;;;;;;5059352;28;20063;-79
2023/07/27 05:27:36;;;;;;;3.67;2.45;;;16.10;99.90;;;;;;5057883;28;20439;-79
2023/07/27 05:30:03;;;;;;;2.85;2.33;;;16.10;99.90;;;;;;5058687;28;20028;-79
2023/07/27 05:32:28;;;;;;;5.97;3.50;;;16.20;99.90;;;;;;5047687;28;20028;-79
2023/07/27 05:34:54;;;;;;;5.50;2.83;;;16.30;99.90;;;;;;5053019;28;20017;-79
2023/07/27 05:37:20;;;;;;;4.55;2.90;;;16.30;99.90;;;;;;5047850;28;20032;-79
2023/07/27 05:39:46;;;;;;;6.82;3.33;;;16.40;99.90;;;;;;5063968;28;20079;-76
2023/07/27 05:42:12;;;;;;;3.83;3.25;;;16.60;99.90;;;;;;5065697;28;20021;-76
2023/07/27 05:44:38;;;;;;;3.95;3.20;;;16.60;99.90;;;;;;5068616;28;20036;-76
2023/07/27 05:47:07;;;;;;;5.70;3.28;;;16.70;99.90;;;;;;5065938;28;20032;-76
2023/07/27 05:49:33;;;;;;;4.82;3.60;;;16.80;99.90;;;;;;5067783;28;20024;-75
2023/07/27 05:51:59;;;;;;;4.57;2.92;;;17.00;99.90;;;;;;5066078;28;20017;-75
2023/07/27 05:54:25;;;;;;;7.85;3.72;;;17.00;99.90;;;;;;5058335;28;20029;-74
2023/07/27 05:56:51;;;;;;;7.72;4.18;;;17.10;99.90;;;;;;5062322;28;20403;-75
2023/07/27 05:59:16;;;;;;;4.38;3.38;;;17.10;99.90;;;;;;5066998;28;20036;-75
2023/07/27 06:01:42;;;;;;;4.60;3.28;;;17.10;99.90;;;;;;5063200;28;20025;-75
2023/07/27 06:04:07;;;;;;;4.90;3.17;;;17.20;99.90;;;;;;5056040;28;20081;-74
2023/07/27 06:06:33;;;;;;;4.30;3.17;;;17.40;99.90;;;;;;5066266;28;20056;-75
2023/07/27 06:08:59;;;;;;;4.85;3.60;;;17.50;99.90;;;;;;5067251;28;20027;-75
2023/07/27 06:11:25;;;;;;;4.50;3.10;;;17.60;99.90;;;;;;5066243;28;20391;-75
2023/07/27 06:13:50;;;;;;;4.15;3.42;;;17.70;99.90;;;;;;5065608;28;20036;-75
2023/07/27 06:16:16;;;;;;;7.43;3.33;;;17.80;99.90;;;;;;5066748;28;20143;-75
2023/07/27 06:18:42;;;;;;;4.80;3.13;;;17.80;99.90;;;;;;5068838;28;20108;-75
2023/07/27 06:21:08;;;;;;;5.22;3.88;;;18.00;99.90;;;;;;5062275;28;20096;-74
2023/07/27 06:23:33;;;;;;;3.00;2.70;;;18.10;99.90;;;;;;5060012;28;20123;-75
2023/07/27 06:25:59;;;;;;;5.80;3.60;;;18.40;99.90;;;;;;5057574;28;20146;-74
2023/07/27 06:28:25;;;;;;;5.75;3.67;;;18.50;99.90;;;;;;5059719;28;20020;-75
2023/07/27 06:30:50;;;;;;;7.35;4.30;;;18.50;99.90;;;;;;5057699;28;20374;-75
2023/07/27 06:33:16;;;;;;;7.38;4.20;;;18.60;99.90;;;;;;5060129;28;20456;-75
2023/07/27 06:35:42;;;;;;;5.93;3.60;;;18.70;99.90;;;;;;5057804;28;20032;-74
2023/07/27 06:38:08;;;;;;;5.88;4.03;;;18.90;99.90;;;;;;5060303;28;20028;-75
2023/07/27 06:40:34;;;;;;;5.22;3.85;;;19.00;99.90;;;;;;5057315;28;20033;-74
2023/07/27 06:42:59;;;;;;;6.68;4.20;;;19.10;99.90;;;;;;5060076;28;20033;-75
2023/07/27 06:45:25;;;;;;;7.00;4.25;;;19.20;99.90;;;;;;5057398;28;20032;-74
2023/07/27 06:47:51;;;;;;;4.55;3.35;;;19.10;99.90;;;;;;5058673;28;20025;-75
2023/07/27 06:50:16;;;;;;;5.68;4.10;;;19.20;99.90;;;;;;5070274;28;20039;-75
2023/07/27 06:52:42;;;;;;;4.45;3.28;;;19.30;99.90;;;;;;5073510;28;20021;-74
2023/07/27 06:55:08;;;;;;;4.43;3.63;;;19.50;99.90;;;;;;5073832;28;20035;-74
2023/07/27 06:57:34;;;;;;;6.00;3.50;;;19.60;99.90;;;;;;5075578;28;20108;-74
2023/07/27 07:00:00;;;;;;;4.57;3.15;;;19.70;99.90;;;;;;5074933;28;20032;-74
2023/07/27 07:02:26;;;;;;;5.25;3.67;;;19.70;99.90;;;;;;5075413;28;20381;-74
2023/07/27 07:04:52;;;;;;;7.65;3.30;;;19.80;99.90;;;;;;5072867;28;20062;-75
2023/07/27 07:07:18;;;;;;;6.18;3.63;;;19.80;99.90;;;;;;5072768;28;20036;-75
2023/07/27 07:09:43;;;;;;;6.75;3.35;;;19.90;99.90;;;;;;5069636;28;20036;-74
2023/07/27 07:12:09;;;;;;;5.07;3.33;;;20.00;99.90;;;;;;5073646;28;20043;-74
2023/07/27 07:14:35;;;;;;;2.92;2.53;;;20.00;99.90;;;;;;5069848;28;20044;-75
2023/07/27 07:17:01;;;;;;;4.95;3.05;;;20.20;99.90;;;;;;5071295;28;20025;-74
2023/07/27 07:19:27;;;;;;;3.20;2.42;;;20.20;99.90;;;;;;5069823;28;20407;-75
2023/07/27 07:21:53;;;;;;;4.15;2.70;;;20.10;99.90;;;;;;5065110;28;20024;-75
2023/07/27 07:24:19;;;;;;;4.78;2.42;;;20.30;99.90;;;;;;5060400;28;20112;-75
2023/07/27 07:26:48;;;;;;;4.60;3.03;;;20.40;99.90;;;;;;5061761;28;20036;-76
2023/07/27 07:29:13;;;;;;;3.00;2.47;;;20.60;99.90;;;;;;5060558;28;20032;-75
2023/07/27 07:31:39;;;;;;;4.35;2.78;;;20.60;99.90;;;;;;5058273;28;20025;-75
2023/07/27 07:34:05;;;;;;;6.53;2.85;;;20.70;99.90;;;;;;5051053;28;20104;-76
2023/07/27 07:36:30;;;;;;;3.60;2.78;;;20.90;99.90;;;;;;5063465;28;20033;-76
2023/07/27 07:38:56;;;;;;;3.42;2.25;;;21.20;99.90;;;;;;5069839;28;20035;-75
2023/07/27 07:41:22;;;;;;;4.57;2.22;;;21.40;99.90;;;;;;5073041;28;20093;-75
2023/07/27 07:43:48;;;;;;;4.13;2.78;;;21.50;99.90;;;;;;5070273;28;20391;-75
2023/07/27 07:46:14;;;;;;;5.65;2.58;;;21.50;99.90;;;;;;5072985;28;20032;-75
2023/07/27 07:48:40;;;;;;;3.75;2.50;;;21.70;99.90;;;;;;5069258;28;20112;-75
2023/07/27 07:51:12;;;;;;;4.38;2.72;;;21.80;99.90;;;;;;5072563;28;20052;-75
2023/07/27 07:53:38;;;;;;;5.40;2.85;;;21.80;99.90;;;;;;5070264;28;20476;-75
2023/07/27 07:56:11;;;;;;;5.13;2.85;;;21.90;99.90;;;;;;5071452;28;20496;-75
2023/07/27 07:58:37;;;;;;;3.83;2.50;;;22.00;99.90;;;;;;5071083;28;20016;-75
2023/07/27 08:01:03;;;;;;;5.47;3.25;;;22.00;99.90;;;;;;5070672;28;20035;-73
2023/07/27 08:03:28;;;;;;;3.75;2.42;;;22.10;99.90;;;;;;5070245;28;20024;-76
2023/07/27 08:05:54;;;;;;;2.58;2.30;;;22.10;99.90;;;;;;5070238;28;20082;-76
2023/07/27 08:08:20;;;;;;;4.07;2.97;;;22.20;99.90;;;;;;5070906;28;20047;-75
2023/07/27 08:10:45;;;;;;;4.25;2.72;;;22.40;99.90;;;;;;5057822;28;20056;-75
2023/07/27 08:13:11;;;;;;;4.03;2.40;;;22.40;99.90;;;;;;5069365;28;20037;-75
2023/07/27 08:15:37;;;;;;;5.22;2.17;;;22.50;99.90;;;;;;5070111;28;20029;-73
2023/07/27 08:18:03;;;;;;;3.40;2.58;;;22.70;99.90;;;;;;5070986;28;20031;-73
2023/07/27 08:20:29;;;;;;;4.68;2.80;;;22.90;99.90;;;;;;5068859;28;20021;-73
2023/07/27 08:22:55;;;;;;;4.40;2.45;;;23.00;99.90;;;;;;5059088;28;20775;-72
2023/07/27 08:25:21;;;;;;;3.10;1.95;;;23.10;99.90;;;;;;5069933;28;20082;-73
2023/07/27 08:27:48;;;;;;;4.70;2.67;;;23.20;99.90;;;;;;5064844;28;20140;-74
2023/07/27 08:30:14;;;;;;;3.08;2.10;;;23.40;99.90;;;;;;5057196;28;20528;-73
2023/07/27 08:32:40;;;;;;;7.30;2.78;;;23.30;99.90;;;;;;5055841;28;20036;-73
2023/07/27 08:35:06;;;;;;;3.58;2.20;;;23.30;99.90;;;;;;5056078;28;20013;-73
2023/07/27 08:37:32;;;;;;;2.55;1.90;;;23.30;99.90;;;;;;5056424;28;20412;-73
2023/07/27 08:40:00;;;;;;;3.42;1.80;;;23.50;99.90;;;;;;5056721;28;20032;-74
2023/07/27 08:42:26;;;;;;;2.95;1.88;;;23.50;99.90;;;;;;5054987;28;20791;-74
2023/07/27 08:44:52;;;;;;;4.70;2.20;;;23.60;99.90;;;;;;5057773;28;20166;-72
2023/07/27 08:47:19;;;;;;;5.50;2.13;;;23.70;99.90;;;;;;5065862;28;20024;-73
2023/07/27 08:49:45;;;;;;;2.17;1.85;;;23.70;99.90;;;;;;5064819;28;20022;-73
2023/07/27 08:52:12;;;;;;;4.40;1.75;;;23.80;99.90;;;;;;5064668;28;20021;-73
2023/07/27 08:54:38;;;;;;;4.10;1.60;;;24.00;99.90;;;;;;5065271;28;20491;-74
2023/07/27 08:57:04;;;;;;;2.45;1.65;;;24.00;99.90;;;;;;5065241;28;20020;-74
2023/07/27 08:59:29;;;;;;;1.52;1.25;;;24.10;99.90;;;;;;5064994;28;20404;-73
2023/07/27 09:01:55;;;;;;;3.00;1.60;;;24.10;99.90;;;;;;5066341;28;20043;-74
2023/07/27 09:04:21;;;;;;;3.10;1.85;;;24.20;99.90;;;;;;5064434;28;20465;-74
2023/07/27 09:06:49;;;;;;;2.28;1.50;;;24.50;99.90;;;;;;5066050;28;20021;-73
2023/07/27 09:09:28;;;;;;;4.82;1.63;;;24.60;99.90;;;;;;5063610;28;20021;-74
2023/07/27 09:11:54;;;;;;;3.13;1.33;;;24.70;99.90;;;;;;5058594;28;20021;-74
2023/07/27 09:14:21;;;;;;;4.03;2.03;;;24.90;99.90;;;;;;5061477;28;20024;-73
2023/07/27 09:16:47;;;;;;;2.53;1.48;;;24.90;99.90;;;;;;5068964;28;20100;-74
2023/07/27 09:19:16;;;;;;;4.55;1.55;;;24.90;99.90;;;;;;5064705;28;20111;-74
2023/07/27 09:21:46;;;;;;;3.33;1.60;;;25.00;99.90;;;;;;5054702;28;20485;-74
2023/07/27 09:24:12;;;;;;;1.80;1.27;;;25.10;99.90;;;;;;5058579;28;20122;-74
2023/07/27 09:26:56;;;;;;;5.03;1.88;;;25.10;99.90;;;;;;5060304;28;20029;-74
2023/07/27 09:29:22;;;;;;;1.80;1.20;;;25.30;99.90;;;;;;5073265;28;20032;-74
2023/07/27 09:31:49;;;;;;;2.85;1.48;;;25.20;99.90;;;;;;5066244;28;20029;-72
2023/07/27 09:34:16;;;;;;;1.80;1.35;;;25.00;99.90;;;;;;5061144;28;20078;-73
2023/07/27 09:36:43;;;;;;;4.85;1.30;;;24.90;99.90;;;;;;5056933;28;20096;-73
2023/07/27 09:39:09;;;;;;;3.22;1.55;;;25.00;99.90;;;;;;5066257;28;20055;-72
2023/07/27 09:41:35;;;;;;;6.38;1.30;;;25.30;99.90;;;;;;5067330;28;20029;-73
2023/07/27 09:44:02;;;;;;;3.25;1.52;;;25.40;99.90;;;;;;5069411;28;20021;-73
2023/07/27 09:46:29;;;;;;;5.32;2.00;;;25.60;99.90;;;;;;5068260;28;20049;-73
2023/07/27 09:48:59;;;;;;;1.85;1.38;;;25.70;99.90;;;;;;5069478;28;20017;-73
2023/07/27 09:51:29;;;;;;;2.23;1.40;;;25.60;99.90;;;;;;5067099;28;20028;-74
2023/07/27 09:53:55;;;;;;;1.67;1.35;;;25.60;99.90;;;;;;5070140;28;20408;-73
2023/07/27 09:56:22;;;;;;;2.42;1.30;;;25.60;99.90;;;;;;5065522;28;20040;-74
2023/07/27 09:58:48;;;;;;;1.45;1.15;;;25.80;99.90;;;;;;5070858;28;20511;-73
2023/07/27 10:01:14;;;;;;;2.50;1.30;;;26.00;99.90;;;;;;5066429;28;20400;-73
2023/07/27 10:03:40;;;;;;;1.55;1.27;;;26.10;99.90;;;;;;5070498;28;20077;-73
2023/07/27 10:06:06;;;;;;;2.10;1.33;;;26.30;99.90;;;;;;5066550;28;20059;-73
2023/07/27 10:08:33;;;;;;;4.78;1.25;;;26.30;99.90;;;;;;5070432;28;20104;-73
2023/07/27 10:11:00;;;;;;;3.17;1.80;;;26.40;99.90;;;;;;5066073;28;20025;-73
2023/07/27 10:13:26;;;;;;;2.33;1.17;;;26.40;99.90;;;;;;5048549;28;20400;-74
2023/07/27 10:15:53;;;;;;;1.95;1.10;;;26.40;99.90;;;;;;5064311;28;20027;-72
2023/07/27 10:18:27;;;;;;;1.98;1.30;;;26.30;99.90;;;;;;5047101;28;20033;-74
2023/07/27 10:21:22;;;;;;;2.10;1.13;;;26.30;99.90;;;;;;5063234;28;20029;-74
2023/07/27 10:24:03;;;;;;;1.80;1.30;;;26.30;99.90;;;;;;5059071;28;20041;-74
2023/07/27 10:26:52;;;;;;;1.58;0.98;;;26.40;99.90;;;;;;5057741;28;20029;-73
2023/07/27 10:29:21;;;;;;;2.25;1.33;;;26.50;99.90;;;;;;5050485;28;20025;-73
2023/07/27 10:32:10;;;;;;;6.03;1.38;;;26.70;99.90;;;;;;5061399;28;20416;-74
2023/07/27 10:34:37;;;;;;;6.28;1.80;;;26.90;99.90;;;;;;5048635;28;20061;-74
2023/07/27 10:37:04;;;;;;;4.60;1.52;;;26.90;99.90;;;;;;5061634;28;20052;-73
2023/07/27 10:39:40;;;;;;;2.25;1.55;;;26.90;99.90;;;;;;5062072;28;20493;-75
2023/07/27 10:42:08;;;;;;;4.65;1.42;;;26.90;99.90;;;;;;5061022;28;20396;-73
2023/07/27 10:44:52;;;;;;;1.95;1.20;;;27.00;99.90;;;;;;5062946;28;20048;-74
2023/07/27 10:47:38;;;;;;;1.95;1.38;;;26.90;99.90;;;;;;5065887;28;20028;-72
2023/07/27 10:50:04;;;;;;;5.03;1.25;;;27.00;99.90;;;;;;5065402;28;20396;-74
2023/07/27 10:52:32;;;;;;;2.10;1.13;;;27.10;99.90;;;;;;5068349;28;20036;-73
2023/07/27 10:54:59;;;;;;;2.85;1.30;;;27.30;99.90;;;;;;5063446;28;20021;-73
2023/07/27 10:57:27;;;;;;;2.40;1.17;;;27.30;99.90;;;;;;5072832;28;20489;-74
2023/07/27 10:59:53;;;;;;;1.67;1.17;;;27.40;99.90;;;;;;5063639;28;20382;-73
2023/07/27 11:02:28;;;;;;;1.58;1.10;;;27.50;99.90;;;;;;5069192;28;20049;-73
2023/07/27 11:04:56;;;;;;;1.45;1.00;;;27.60;99.90;;;;;;5064034;28;20567;-75
2023/07/27 11:07:29;;;;;;;3.28;1.38;;;27.70;99.90;;;;;;5066713;28;20523;-73
2023/07/27 11:09:55;;;;;;;2.75;1.20;;;27.70;99.90;;;;;;5062824;28;20029;-73
2023/07/27 11:12:21;;;;;;;1.55;1.13;;;27.60;99.90;;;;;;5063560;28;20067;-73
2023/07/27 11:14:47;;;;;;;0.85;0.75;;;27.60;99.90;;;;;;5060186;28;20025;-72
2023/07/27 11:17:14;;;;;;;4.68;1.20;;;27.70;99.90;;;;;;5064658;28;20035;-73
2023/07/27 11:19:39;;;;;;;1.80;1.10;;;27.70;99.90;;;;;;5061388;28;20025;-74
2023/07/27 11:22:05;;;;;;;1.80;1.10;;;27.80;99.90;;;;;;5071411;28;20515;-74
2023/07/27 11:24:32;;;;;;;2.05;1.23;;;27.90;99.90;;;;;;5051348;28;20078;-74
2023/07/27 11:26:59;;;;;;;1.98;0.88;;;28.00;99.90;;;;;;5072486;28;20017;-73
2023/07/27 11:29:25;;;;;;;2.38;1.10;;;28.10;99.90;;;;;;5067439;28;20455;-72
2023/07/27 11:31:54;;;;;;;2.92;1.00;;;28.20;99.90;;;;;;5073512;28;20032;-74
2023/07/27 11:34:25;;;;;;;1.60;1.10;;;28.30;99.90;;;;;;5076944;28;20103;-74
2023/07/27 11:36:52;;;;;;;1.95;1.20;;;28.30;99.90;;;;;;5074211;28;20047;-76
2023/07/27 11:39:18;;;;;;;1.67;1.13;;;28.40;99.90;;;;;;5075587;28;20024;-75
2023/07/27 11:41:44;;;;;;;3.17;1.30;;;28.30;99.90;;;;;;5074748;28;20513;-74
2023/07/27 11:44:10;;;;;;;3.95;1.70;;;28.40;99.90;;;;;;5077105;28;20024;-75
2023/07/27 11:46:47;;;;;;;2.55;1.30;;;28.40;99.90;;;;;;5076905;28;20434;-74
2023/07/27 11:49:14;;;;;;;2.25;1.27;;;28.40;99.90;;;;;;5077379;28;20127;-74
2023/07/27 11:51:40;;;;;;;2.17;1.20;;;28.40;99.90;;;;;;5077151;28;20016;-74
2023/07/27 11:54:07;;;;;;;2.67;1.20;;;28.60;99.90;;;;;;5073611;28;20426;-74
2023/07/27 11:56:36;;;;;;;1.80;1.23;;;28.60;99.90;;;;;;5070427;28;20037;-76
2023/07/27 11:59:07;;;;;;;2.47;1.40;;;28.70;99.90;;;;;;5048405;28;20017;-73
2023/07/27 12:01:33;;;;;;;;;;;28.90;99.90;;;;;;5056208;28;20522;-74
2023/07/27 12:03:59;;;;;;;1.60;1.05;;;28.90;99.90;;;;;;5049841;28;19955;-74
2023/07/27 12:06:25;;;;;;;6.88;2.28;;;29.10;99.90;;;;;;5048891;28;20046;-74
2023/07/27 12:08:51;;;;;;;2.40;1.27;;;29.00;99.90;;;;;;5047995;28;20096;-73
2023/07/27 12:11:23;;;;;;;2.58;1.40;;;29.00;99.90;;;;;;5050662;28;20036;-74
2023/07/27 12:13:50;;;;;;;2.00;1.27;;;29.00;99.90;;;;;;5050828;28;20029;-74
2023/07/27 12:16:17;;;;;;;2.50;1.13;;;29.10;99.90;;;;;;5049684;28;20117;-74
2023/07/27 12:18:45;;;;;;;8.25;1.20;;;29.20;99.90;;;;;;5048643;28;20518;-74
2023/07/27 12:21:11;;;;;;;1.80;0.90;;;29.30;99.90;;;;;;5048421;28;20025;-74
2023/07/27 12:23:37;;;;;;;4.50;2.22;;;29.40;99.90;;;;;;5062381;28;20070;-75
2023/07/27 12:26:03;;;;;;;2.08;1.30;;;29.50;99.90;;;;;;5064893;28;20536;-74
2023/07/27 12:28:31;;;;;;;3.08;1.50;;;29.60;99.90;;;;;;5075117;28;20028;-74
2023/07/27 12:30:56;;;;;;;2.30;1.40;;;29.70;99.90;;;;;;5074746;28;20020;-74
2023/07/27 12:33:25;;;;;;;1.90;1.20;;;29.70;99.90;;;;;;5073087;28;20046;-72
2023/07/27 12:35:53;;;;;;;5.03;1.48;;;29.80;99.90;;;;;;5062664;28;20108;-74
2023/07/27 12:38:19;;;;;;;3.03;1.55;;;29.60;99.90;;;;;;5060698;28;20071;-73
2023/07/27 12:40:46;;;;;;;4.32;1.33;;;29.70;99.90;;;;;;5058138;28;20399;-74
2023/07/27 12:43:12;;;;;;;3.58;1.38;;;29.70;99.50;;;;;;5066129;28;20029;-73
2023/07/27 12:45:39;;;;;;;2.50;1.38;;;29.70;99.10;;;;;;5062183;28;20025;-74
2023/07/27 12:48:05;;;;;;;2.63;1.25;;;29.90;99.90;;;;;;5065259;28;20496;-74